createdAt,value
2022-11-20T00:02:11.362Z,10.10
2022-11-20T00:04:56.713Z,10.67
2022-11-20T00:07:42.279Z,9.03
2022-11-20T00:10:27.545Z,9.37
2022-11-20T00:13:12.853Z,9.27
2022-11-20T00:15:59.577Z,9.03
2022-11-20T00:18:44.980Z,9.47
2022-11-20T00:21:31.341Z,8.93
2022-11-20T00:24:16.658Z,9.43
2022-11-20T00:27:01.580Z,8.60
2022-11-20T00:29:47.522Z,9.60
2022-11-20T00:32:32.883Z,9.70
2022-11-20T00:35:17.937Z,8.83
2022-11-20T00:38:02.858Z,9.53
2022-11-20T00:40:52.228Z,9.73
2022-11-20T00:43:39.950Z,9.53
2022-11-20T00:46:27.694Z,8.67
2022-11-20T00:49:12.937Z,9.33
2022-11-20T00:51:58.390Z,9.17
2022-11-20T00:54:43.106Z,8.43
2022-11-20T00:57:28.518Z,8.80
2022-11-20T01:00:13.697Z,8.73
2022-11-20T01:02:58.978Z,9.03
2022-11-20T01:05:44.833Z,8.10
2022-11-20T01:08:32.081Z,7.80
2022-11-20T01:11:23.111Z,8.10
2022-11-20T01:14:11.639Z,8.57
2022-11-20T01:16:56.862Z,8.20
2022-11-20T01:19:41.726Z,8.87
2022-11-20T01:22:27.238Z,10.03
2022-11-20T01:25:12.644Z,8.40
2022-11-20T01:27:57.559Z,8.87
2022-11-20T01:30:42.861Z,8.50
2022-11-20T01:33:28.434Z,8.77
2022-11-20T01:36:15.251Z,8.67
2022-11-20T01:39:02.510Z,7.93
2022-11-20T01:42:10.169Z,8.20
2022-11-20T01:45:01.213Z,8.17
2022-11-20T01:47:47.427Z,7.97
2022-11-20T01:50:34.737Z,8.77
2022-11-20T01:53:25.149Z,8.23
2022-11-20T01:56:13.198Z,8.30
2022-11-20T01:59:02.433Z,7.97
2022-11-20T02:01:48.041Z,8.53
2022-11-20T02:04:33.204Z,7.90
2022-11-20T02:07:18.759Z,7.73
2022-11-20T02:10:04.594Z,8.07
2022-11-20T02:13:08.605Z,7.10
2022-11-20T02:15:54.105Z,7.53
2022-11-20T02:18:40.126Z,7.70
2022-11-20T02:21:45.453Z,8.20
2022-11-20T02:24:30.690Z,7.27
2022-11-20T02:27:17.770Z,7.77
2022-11-20T02:30:08.371Z,7.30
2022-11-20T02:32:53.538Z,7.53
2022-11-20T02:35:47.319Z,7.30
2022-11-20T02:38:32.785Z,7.23
2022-11-20T02:41:18.019Z,7.47
2022-11-20T02:44:05.226Z,7.07
2022-11-20T02:46:50.660Z,7.93
2022-11-20T02:49:36.019Z,7.33
2022-11-20T02:52:20.917Z,6.67
2022-11-20T02:55:06.533Z,7.73
2022-11-20T02:57:51.459Z,6.93
2022-11-20T03:00:36.644Z,7.00
2022-11-20T03:03:21.711Z,7.40
2022-11-20T03:06:07.368Z,7.03
2022-11-20T03:08:52.482Z,6.97
2022-11-20T03:11:37.429Z,7.07
2022-11-20T03:14:22.850Z,7.00
2022-11-20T03:17:07.781Z,6.83
2022-11-20T03:19:53.127Z,7.27
2022-11-20T03:22:38.159Z,7.00
2022-11-20T03:25:23.638Z,7.33
2022-11-20T03:28:08.924Z,6.80
2022-11-20T03:30:53.832Z,6.57
2022-11-20T03:33:40.126Z,6.77
2022-11-20T03:36:25.987Z,6.93
2022-11-20T03:39:11.422Z,6.87
2022-11-20T03:41:56.420Z,6.67
2022-11-20T03:44:41.884Z,6.30
2022-11-20T03:47:26.804Z,6.00
2022-11-20T03:50:14.655Z,6.30
2022-11-20T03:53:00.188Z,6.90
2022-11-20T03:55:45.218Z,6.20
2022-11-20T03:58:30.156Z,6.30
2022-11-20T04:01:36.041Z,6.60
2022-11-20T04:04:21.488Z,6.50
2022-11-20T04:07:06.643Z,5.87
2022-11-20T04:09:52.088Z,7.67
2022-11-20T04:12:36.839Z,6.73
2022-11-20T04:15:21.752Z,5.47
2022-11-20T04:18:06.652Z,7.00
2022-11-20T04:20:51.543Z,5.70
2022-11-20T04:23:36.439Z,6.03
2022-11-20T04:26:24.422Z,6.03
2022-11-20T04:29:12.660Z,5.97
2022-11-20T04:31:57.474Z,5.90
2022-11-20T04:34:42.427Z,5.97
2022-11-20T04:37:27.413Z,5.40
2022-11-20T04:40:13.137Z,6.37
2022-11-20T04:42:58.035Z,6.07
2022-11-20T04:45:42.829Z,5.80
2022-11-20T04:48:29.140Z,5.70
2022-11-20T04:51:14.120Z,5.53
2022-11-20T04:53:58.919Z,5.93
2022-11-20T04:56:44.530Z,5.70
2022-11-20T04:59:29.817Z,5.37
2022-11-20T05:02:15.595Z,5.70
2022-11-20T05:05:00.686Z,5.17
2022-11-20T05:07:45.564Z,6.13
2022-11-20T05:10:30.721Z,5.47
2022-11-20T05:13:15.854Z,5.27
2022-11-20T05:16:07.058Z,5.30
2022-11-20T05:18:55.147Z,5.27
2022-11-20T05:21:40.199Z,5.33
2022-11-20T05:24:25.227Z,5.20
2022-11-20T05:27:10.526Z,5.87
2022-11-20T05:29:55.619Z,5.27
2022-11-20T05:32:40.584Z,5.47
2022-11-20T05:35:25.936Z,4.70
2022-11-20T05:38:10.968Z,5.13
2022-11-20T05:40:56.019Z,5.47
2022-11-20T05:43:42.948Z,5.63
2022-11-20T05:46:29.451Z,5.00
2022-11-20T05:49:14.684Z,4.77
2022-11-20T05:52:00.216Z,4.93
2022-11-20T05:54:45.834Z,5.13
2022-11-20T05:57:32.368Z,5.40
2022-11-20T06:00:17.637Z,4.60
2022-11-20T06:03:03.018Z,4.97
2022-11-20T06:05:48.230Z,4.70
2022-11-20T06:08:33.666Z,4.83
2022-11-20T06:11:18.944Z,4.77
2022-11-20T06:14:04.368Z,4.30
2022-11-20T06:16:49.400Z,4.87
2022-11-20T06:19:34.174Z,4.37
2022-11-20T06:22:18.992Z,4.17
2022-11-20T06:25:04.067Z,5.23
2022-11-20T06:27:49.161Z,4.87
2022-11-20T06:30:34.091Z,4.07
2022-11-20T06:33:19.072Z,4.53
2022-11-20T06:36:10.452Z,4.70
2022-11-20T06:38:56.239Z,4.27
2022-11-20T06:41:41.303Z,4.40
2022-11-20T06:44:26.484Z,4.90
2022-11-20T06:47:11.704Z,4.10
2022-11-20T06:49:56.910Z,4.77
2022-11-20T06:52:43.879Z,4.20
2022-11-20T06:55:29.115Z,3.90
2022-11-20T06:58:15.607Z,4.20
2022-11-20T07:01:01.371Z,3.73
2022-11-20T07:03:54.206Z,4.37
2022-11-20T07:06:40.067Z,3.80
2022-11-20T07:09:25.288Z,3.87
2022-11-20T07:12:10.655Z,3.83
2022-11-20T07:14:55.907Z,3.90
2022-11-20T07:17:41.108Z,3.83
2022-11-20T07:20:26.144Z,4.00
2022-11-20T07:23:11.211Z,3.93
2022-11-20T07:25:56.230Z,3.73
2022-11-20T07:28:45.472Z,4.20
2022-11-20T07:31:30.807Z,4.20
2022-11-20T07:34:15.835Z,4.00
2022-11-20T07:37:03.790Z,4.43
2022-11-20T07:39:50.922Z,3.97
2022-11-20T07:42:35.963Z,3.80
2022-11-20T07:45:23.309Z,4.13
2022-11-20T07:48:08.435Z,3.20
2022-11-20T07:50:57.574Z,3.70
2022-11-20T07:53:42.687Z,4.13
2022-11-20T07:56:27.716Z,3.33
2022-11-20T07:59:12.858Z,3.80
2022-11-20T08:01:57.945Z,3.30
2022-11-20T08:04:42.996Z,3.80
2022-11-20T08:07:28.523Z,3.40
2022-11-20T08:10:16.836Z,3.47
2022-11-20T08:13:20.649Z,4.27
2022-11-20T08:16:05.850Z,3.37
2022-11-20T08:18:51.131Z,3.67
2022-11-20T08:21:38.364Z,3.80
2022-11-20T08:24:23.804Z,3.33
2022-11-20T08:27:08.880Z,3.30
2022-11-20T08:29:53.971Z,3.30
2022-11-20T08:32:39.013Z,3.80
2022-11-20T08:35:24.424Z,3.40
2022-11-20T08:38:09.776Z,3.37
2022-11-20T08:41:21.919Z,3.83
2022-11-20T08:44:08.610Z,3.20
2022-11-20T08:46:53.624Z,3.73
2022-11-20T08:49:38.526Z,3.50
2022-11-20T08:52:23.626Z,3.07
2022-11-20T08:55:09.363Z,3.30
2022-11-20T08:57:54.531Z,3.37
2022-11-20T09:00:39.376Z,3.77
2022-11-20T09:06:29.875Z,3.77
2022-11-20T09:09:14.764Z,3.10
2022-11-20T09:12:00.247Z,3.30
2022-11-20T09:14:45.214Z,3.17
2022-11-20T09:17:30.031Z,3.23
2022-11-20T09:20:15.487Z,3.47
2022-11-20T09:23:00.461Z,3.33
2022-11-20T09:25:45.444Z,3.30
2022-11-20T09:28:31.128Z,3.30
2022-11-20T09:31:27.137Z,3.27
2022-11-20T09:34:12.267Z,3.20
2022-11-20T09:36:58.552Z,3.63
2022-11-20T09:39:45.487Z,3.00
2022-11-20T09:42:46.050Z,3.60
2022-11-20T09:45:57.486Z,2.87
2022-11-20T09:49:20.995Z,3.40
2022-11-20T09:52:18.476Z,3.50
2022-11-20T09:55:05.146Z,3.03
2022-11-20T09:57:53.153Z,3.20
2022-11-20T10:00:38.593Z,2.90
2022-11-20T10:03:39.331Z,3.63
2022-11-20T10:06:31.867Z,3.03
2022-11-20T10:09:55.578Z,3.33
2022-11-20T10:13:00.589Z,3.20
2022-11-20T10:16:24.540Z,3.13
2022-11-20T10:19:31.406Z,2.93
2022-11-20T10:22:50.777Z,3.33
2022-11-20T10:25:56.464Z,3.43
2022-11-20T10:28:59.932Z,2.93
2022-11-20T10:31:51.676Z,3.17
2022-11-20T10:35:02.571Z,3.80
2022-11-20T10:37:56.181Z,3.33
2022-11-20T10:40:48.079Z,3.37
2022-11-20T10:44:02.855Z,3.27
2022-11-20T10:46:49.336Z,3.20
2022-11-20T10:49:35.458Z,3.30
2022-11-20T10:52:42.886Z,3.77
2022-11-20T10:55:33.327Z,3.10
2022-11-20T10:58:41.669Z,3.17
2022-11-20T11:01:27.589Z,2.90
2022-11-20T11:04:22.252Z,3.10
2022-11-20T11:07:16.422Z,3.83
2022-11-20T11:10:01.782Z,3.50
2022-11-20T11:12:49.172Z,3.33
2022-11-20T11:15:41.882Z,3.20
2022-11-20T11:18:31.973Z,3.17
2022-11-20T11:21:27.508Z,3.10
2022-11-20T11:24:45.743Z,3.50
2022-11-20T11:27:31.079Z,3.17
2022-11-20T11:30:34.635Z,3.47
2022-11-20T11:33:22.745Z,3.50
2022-11-20T11:36:20.875Z,3.23
2022-11-20T11:39:12.398Z,3.23
2022-11-20T11:42:15.528Z,3.77
2022-11-20T11:45:07.357Z,3.20
2022-11-20T11:47:54.908Z,2.90
2022-11-20T11:50:49.934Z,3.00
2022-11-20T11:53:42.806Z,3.40
2022-11-20T11:56:50.203Z,3.00
2022-11-20T12:00:08.380Z,3.33
2022-11-20T12:03:13.770Z,3.07
2022-11-20T12:06:50.659Z,3.00
2022-11-20T12:09:50.236Z,3.43
2022-11-20T12:12:44.999Z,3.53
2022-11-20T12:15:45.208Z,3.30
2022-11-20T12:19:06.773Z,3.10
2022-11-20T12:22:04.135Z,3.53
2022-11-20T12:29:00.767Z,3.10
2022-11-20T12:32:34.489Z,3.43
2022-11-20T12:35:57.755Z,3.20
2022-11-20T12:39:00.206Z,3.07
2022-11-20T12:42:42.392Z,3.27
2022-11-20T12:46:07.478Z,3.20
2022-11-20T12:49:31.510Z,3.10
2022-11-20T12:53:08.160Z,3.33
2022-11-20T12:56:18.571Z,2.93
2022-11-20T12:59:34.123Z,3.30
2022-11-20T13:02:35.006Z,3.20
2022-11-20T13:05:43.375Z,3.63
2022-11-20T13:08:34.797Z,3.20
2022-11-20T13:11:31.229Z,3.70
2022-11-20T13:14:40.811Z,3.27
2022-11-20T13:17:37.128Z,3.37
2022-11-20T13:20:22.326Z,3.10
2022-11-20T13:23:07.710Z,3.00
2022-11-20T13:26:04.963Z,2.93
2022-11-20T13:29:11.995Z,3.20
2022-11-20T13:32:15.017Z,2.80
2022-11-20T13:35:02.996Z,2.73
2022-11-20T13:37:48.126Z,3.17
2022-11-20T13:40:34.767Z,3.33
2022-11-20T13:43:37.927Z,3.10
2022-11-20T13:46:25.499Z,3.13
2022-11-20T13:49:18.870Z,3.07
2022-11-20T13:52:27.967Z,3.10
2022-11-20T13:55:28.418Z,2.83
2022-11-20T13:58:41.811Z,2.73
2022-11-20T14:01:32.675Z,2.47
2022-11-20T14:04:26.827Z,3.33
2022-11-20T14:07:13.080Z,3.10
2022-11-20T14:09:58.691Z,2.50
2022-11-20T14:12:43.623Z,3.03
2022-11-20T14:15:37.349Z,3.40
2022-11-20T14:18:27.292Z,2.77
2022-11-20T14:21:12.510Z,2.80
2022-11-20T14:24:08.220Z,3.10
2022-11-20T14:26:53.647Z,2.97
2022-11-20T14:29:40.149Z,3.00
2022-11-20T14:32:30.490Z,2.53
2022-11-20T14:35:27.504Z,3.13
2022-11-20T14:38:19.513Z,2.70
2022-11-20T14:41:10.024Z,3.00
2022-11-20T14:44:00.555Z,2.90
2022-11-20T14:46:45.786Z,2.80
2022-11-20T14:49:32.612Z,2.90
2022-11-20T14:52:23.616Z,2.90
2022-11-20T14:55:09.691Z,2.90
2022-11-20T14:58:03.969Z,3.57
2022-11-20T15:01:15.298Z,3.33
2022-11-20T15:04:11.562Z,2.77
2022-11-20T15:07:00.260Z,2.60
2022-11-20T15:10:07.363Z,2.90
2022-11-20T15:12:57.967Z,2.80
2022-11-20T15:15:56.029Z,2.83
2022-11-20T15:19:18.283Z,2.97
2022-11-20T15:22:03.125Z,2.77
2022-11-20T15:24:48.448Z,2.57
2022-11-20T15:27:33.497Z,2.40
2022-11-20T15:30:21.076Z,2.50
2022-11-20T15:33:09.544Z,2.80
2022-11-20T15:35:54.375Z,2.60
2022-11-20T15:38:39.392Z,3.27
2022-11-20T15:41:24.750Z,2.40
2022-11-20T15:44:09.795Z,2.23
2022-11-20T15:46:54.735Z,2.80
2022-11-20T15:49:39.722Z,3.07
2022-11-20T15:52:24.933Z,2.40
2022-11-20T15:55:11.261Z,2.30
2022-11-20T15:57:56.232Z,2.63
2022-11-20T16:00:41.027Z,2.80
2022-11-20T16:03:26.538Z,2.50
2022-11-20T16:06:11.943Z,2.53
2022-11-20T16:08:57.237Z,2.57
2022-11-20T16:11:42.222Z,2.80
2022-11-20T16:14:46.362Z,2.90
2022-11-20T16:17:43.424Z,2.70
2022-11-20T16:20:28.778Z,2.27
2022-11-20T16:23:13.914Z,2.83
2022-11-20T16:25:59.167Z,2.30
2022-11-20T16:28:44.700Z,2.77
2022-11-20T16:31:30.496Z,2.53
2022-11-20T16:34:17.285Z,2.67
2022-11-20T16:37:02.495Z,2.10
2022-11-20T16:39:47.466Z,2.53
2022-11-20T16:42:36.528Z,3.03
2022-11-20T16:45:26.941Z,14.30
2022-11-20T16:48:16.120Z,2.80
2022-11-20T16:51:01.064Z,3.37
2022-11-20T16:53:45.979Z,3.50
2022-11-20T16:56:33.215Z,3.40
2022-11-20T16:59:20.114Z,2.70
2022-11-20T17:02:06.979Z,2.37
2022-11-20T17:04:52.965Z,2.73
2022-11-20T17:07:39.168Z,3.17
2022-11-20T17:10:24.593Z,2.60
2022-11-20T17:13:09.694Z,2.83
2022-11-20T17:15:54.505Z,3.10
2022-11-20T17:18:40.178Z,2.80
2022-11-20T17:21:25.282Z,3.47
2022-11-20T17:24:13.859Z,4.70
2022-11-20T17:26:59.206Z,3.37
2022-11-20T17:29:44.075Z,2.93
2022-11-20T17:32:30.898Z,2.67
2022-11-20T17:35:17.729Z,3.70
2022-11-20T17:38:04.603Z,3.50
2022-11-20T17:40:51.492Z,3.10
2022-11-20T17:43:38.966Z,3.57
2022-11-20T17:46:28.262Z,3.27
2022-11-20T17:49:16.960Z,2.90
2022-11-20T17:52:06.210Z,3.07
2022-11-20T17:54:55.874Z,3.60
2022-11-20T17:57:56.959Z,3.13
2022-11-20T18:00:43.848Z,3.13
2022-11-20T18:03:30.636Z,2.97
2022-11-20T18:06:23.294Z,3.40
2022-11-20T18:09:10.237Z,3.77
2022-11-20T18:11:57.093Z,4.30
2022-11-20T18:14:43.920Z,3.43
2022-11-20T18:17:30.888Z,3.43
2022-11-20T18:20:29.384Z,3.20
2022-11-20T18:23:18.023Z,3.60
2022-11-20T18:26:04.864Z,3.60
2022-11-20T18:28:51.788Z,3.60
2022-11-20T18:31:38.694Z,3.13
2022-11-20T18:34:26.722Z,3.60
2022-11-20T18:37:15.391Z,3.60
2022-11-20T18:40:02.319Z,3.73
2022-11-20T18:43:07.850Z,3.77
2022-11-20T18:46:02.642Z,3.10
2022-11-20T18:48:49.483Z,3.40
2022-11-20T18:51:36.967Z,3.87
2022-11-20T18:54:24.742Z,3.37
2022-11-20T18:57:14.741Z,3.47
2022-11-20T19:00:08.247Z,3.27
2022-11-20T19:02:55.699Z,3.70
2022-11-20T19:05:42.669Z,3.10
2022-11-20T19:08:34.674Z,3.80
2022-11-20T19:11:21.508Z,3.50
2022-11-20T19:14:08.531Z,4.20
2022-11-20T19:16:55.422Z,3.60
2022-11-20T19:19:42.255Z,3.03
2022-11-20T19:22:29.137Z,3.73
2022-11-20T19:25:15.943Z,4.13
2022-11-20T19:28:02.777Z,3.67
2022-11-20T19:30:49.587Z,4.03
2022-11-20T19:33:36.879Z,3.20
2022-11-20T19:36:26.427Z,3.40
2022-11-20T19:39:25.906Z,4.37
2022-11-20T19:42:12.850Z,3.33
2022-11-20T19:45:03.021Z,3.80
2022-11-20T19:48:07.829Z,3.70
2022-11-20T19:51:23.055Z,3.43
2022-11-20T19:54:27.411Z,3.80
2022-11-20T20:00:40.530Z,3.53
2022-11-20T20:03:27.583Z,3.73
2022-11-20T20:06:25.967Z,3.90
2022-11-20T20:09:13.703Z,3.40
2022-11-20T20:12:00.611Z,3.40
2022-11-20T20:14:47.467Z,3.80
2022-11-20T20:17:35.375Z,3.17
2022-11-20T20:20:22.391Z,3.33
2022-11-20T20:23:09.896Z,3.50
2022-11-20T20:25:56.749Z,3.07
2022-11-20T20:28:43.555Z,3.47
2022-11-20T20:31:33.218Z,3.43
2022-11-20T20:34:20.085Z,3.80
2022-11-20T20:37:06.874Z,3.40
2022-11-20T20:39:53.711Z,3.97
2022-11-20T20:42:40.515Z,3.30
2022-11-20T20:45:27.674Z,3.10
2022-11-20T20:48:24.809Z,3.63
2022-11-20T20:51:11.663Z,3.00
2022-11-20T20:53:59.357Z,3.33
2022-11-20T20:56:46.181Z,3.13
2022-11-20T20:59:33.082Z,3.60
2022-11-20T21:02:20.398Z,3.47
2022-11-20T21:05:07.469Z,3.13
2022-11-20T21:08:12.799Z,3.23
2022-11-20T21:11:04.959Z,3.93
2022-11-20T21:13:51.800Z,3.60
2022-11-20T21:16:41.312Z,3.00
2022-11-20T21:19:28.482Z,3.03
2022-11-20T21:22:15.271Z,3.83
2022-11-20T21:25:02.053Z,3.20
2022-11-20T21:27:48.930Z,3.43
2022-11-20T21:34:22.868Z,3.23
2022-11-20T21:37:23.238Z,3.07
2022-11-20T21:40:10.101Z,3.23
2022-11-20T21:42:56.950Z,3.43
2022-11-20T21:45:43.831Z,3.43
2022-11-20T21:48:32.387Z,3.10
2022-11-20T21:51:21.070Z,3.03
2022-11-20T21:54:09.598Z,2.60
2022-11-20T21:56:56.562Z,3.03
2022-11-20T21:59:43.559Z,2.70
2022-11-20T22:02:30.411Z,3.17
2022-11-20T22:05:17.268Z,3.50
2022-11-20T22:08:04.511Z,3.07
2022-11-20T22:11:02.747Z,3.37
2022-11-20T22:14:08.147Z,2.80
2022-11-20T22:16:55.115Z,3.60
2022-11-20T22:19:41.940Z,2.60
2022-11-20T22:22:28.751Z,2.83
2022-11-20T22:28:37.480Z,2.77
2022-11-20T22:31:26.643Z,2.90
2022-11-20T22:34:14.223Z,3.07
2022-11-20T22:37:01.059Z,2.60
2022-11-20T22:39:47.876Z,2.70
2022-11-20T22:42:34.671Z,2.37
2022-11-20T22:45:21.518Z,2.63
2022-11-20T22:48:08.622Z,2.60
2022-11-20T22:51:07.572Z,3.07
2022-11-20T22:53:54.872Z,2.47
2022-11-20T22:56:41.917Z,2.47
2022-11-20T22:59:28.717Z,2.83
2022-11-20T23:02:15.518Z,2.60
2022-11-20T23:05:02.361Z,2.60
2022-11-20T23:07:49.264Z,2.87
2022-11-20T23:10:36.073Z,3.07
2022-11-20T23:13:22.893Z,2.73
2022-11-20T23:16:12.492Z,2.60
2022-11-20T23:19:02.197Z,2.67
2022-11-20T23:21:49.217Z,2.83
2022-11-20T23:24:36.050Z,2.70
2022-11-20T23:27:25.990Z,2.63
2022-11-20T23:30:15.395Z,2.57
2022-11-20T23:33:02.371Z,2.63
2022-11-20T23:35:49.579Z,2.83
2022-11-20T23:38:37.819Z,2.73
2022-11-20T23:41:24.725Z,2.20
2022-11-20T23:44:11.502Z,2.13
2022-11-20T23:46:58.387Z,2.07
2022-11-20T23:49:45.191Z,2.13
2022-11-20T23:52:32.024Z,2.00
2022-11-20T23:55:18.842Z,2.33
2022-11-20T23:58:05.737Z,2.20
